Airfield :
LOGIN :

Register | Disclaimer

   EN    FR    IT 

 










Legend :    VFR   Marginal VFR   IFR   Intensive IFR   Very Intensive IFR
Visi :
Ceiling :
>= 8 km
>= 3000ft
5 to 8 km
1000 to 3000 ft
1500m to 5 km
500 to 1000 ft
800 to 1500m
200 to 500 ft
< 800m
< 200 ft
Symbols :   Thunderstorms  Fog  Heavy snow  Heavy precipitations  Wind > 20 kt
SIGMETs :     Misc.  Thunderstorms  Icing  Turbulence  Mountain Waves  Volcanic Ashes






- Airport Elevation : 3 ft
- IATA code : EME


EDWE - Emden

CURRENT METAR :
  • 011450Z 28021KT 9999 BKN024 BKN035CB 07/04 Q1011 RESHRA

EXPIRED METARs :
  • 011420Z 28021KT 9999 SCT033 BKN038 07/04 Q1011
  • 011350Z 28021KT 9999 SCT034 BKN042 07/04 Q1010
  • 011320Z 27018KT 9999 SCT025 BKN030 07/04 Q1010
  • 011250Z 26016KT 9999 FEW016 06/03 Q1010
  • 011220Z 27016KT 9999 FEW030 SCT055CB 05/03 Q1010
  • 011150Z 28021G34KT 9999 DZ FEW012 BKN022 04/02 Q1011 RERA

TAF TAF EDWE
Valid from the 01 at 15:00 until the 01 at 21:00 UTC


011400Z 0115/0121 27020KT 9999 SCT020
PROB30
TEMPO 0115/0118 29020G40KT 4500 SHRA BKN010CB
TEMPO 0118/0121 28020G35KT



MET'MAP, your aeronautical weather chart ! - Copyright ORBIFLY December 2007 - Disclaimer

ORBIFLY MET'MAP TEAM :

Programming & Development : Alexandra Zaïnal
Original concept : Baudouin d'Aumeries
Technical & hardware support : Manuel Goepfert
Assistance : Marc-Olivier Méhu




SOURCES & CREDITS :

   NOAA